createdAt,value
2017-11-11T00:02:01.905Z,6.99
2017-11-11T00:04:31.910Z,6.97
2017-11-11T00:07:01.097Z,6.94
2017-11-11T00:09:30.556Z,6.83
2017-11-11T00:11:59.789Z,6.84
2017-11-11T00:14:28.995Z,6.80
2017-11-11T00:16:58.220Z,6.77
2017-11-11T00:19:27.451Z,6.76
2017-11-11T00:21:56.663Z,6.74
2017-11-11T00:24:26.020Z,6.77
2017-11-11T00:26:56.041Z,6.73
2017-11-11T00:29:25.252Z,6.71
2017-11-11T00:31:54.572Z,6.72
2017-11-11T00:34:23.805Z,6.72
2017-11-11T00:36:53.024Z,6.68
2017-11-11T00:39:23.021Z,6.68
2017-11-11T00:41:52.378Z,6.70
2017-11-11T00:44:22.589Z,6.68
2017-11-11T00:46:52.621Z,6.72
2017-11-11T00:49:21.817Z,6.73
2017-11-11T00:51:51.032Z,6.78
2017-11-11T00:54:20.256Z,6.78
2017-11-11T00:56:49.513Z,6.79
2017-11-11T00:59:18.825Z,6.81
2017-11-11T01:01:48.085Z,6.88
2017-11-11T01:04:17.316Z,6.91
2017-11-11T01:06:46.544Z,6.90
2017-11-11T01:09:15.729Z,6.91
2017-11-11T01:11:45.080Z,6.94
2017-11-11T01:14:14.340Z,6.95
2017-11-11T01:16:43.566Z,6.96
2017-11-11T01:19:13.531Z,6.99
2017-11-11T01:21:42.822Z,7.02
2017-11-11T01:24:12.031Z,7.00
2017-11-11T01:26:41.204Z,6.96
2017-11-11T01:29:10.442Z,6.95
2017-11-11T01:31:39.637Z,6.92
2017-11-11T01:34:10.369Z,6.83
2017-11-11T01:36:39.548Z,6.82
2017-11-11T01:39:08.748Z,6.81
2017-11-11T01:41:37.954Z,6.77
2017-11-11T01:44:07.156Z,6.77
2017-11-11T01:46:36.337Z,6.69
2017-11-11T01:49:05.540Z,6.72
2017-11-11T01:51:34.749Z,6.70
2017-11-11T01:54:03.976Z,6.71
2017-11-11T01:56:33.962Z,6.73
2017-11-11T01:59:03.155Z,6.73
2017-11-11T02:01:32.340Z,6.75
2017-11-11T02:04:01.650Z,6.78
2017-11-11T02:06:31.071Z,6.78
2017-11-11T02:09:01.803Z,6.81
2017-11-11T02:11:30.987Z,6.83
2017-11-11T02:14:00.262Z,6.84
2017-11-11T02:16:29.461Z,6.78
2017-11-11T02:18:58.668Z,6.77
2017-11-11T02:21:27.941Z,6.67
2017-11-11T02:23:58.058Z,6.49
2017-11-11T02:26:28.018Z,6.44
2017-11-11T02:28:57.212Z,6.48
2017-11-11T02:31:28.004Z,6.52
2017-11-11T02:33:57.939Z,6.51
2017-11-11T02:36:27.128Z,6.53
2017-11-11T02:38:56.516Z,6.59
2017-11-11T02:41:25.728Z,6.60
2017-11-11T02:43:54.917Z,6.63
2017-11-11T02:46:24.127Z,6.71
2017-11-11T02:48:53.337Z,6.71
2017-11-11T02:51:22.520Z,6.66
2017-11-11T02:53:51.812Z,6.66
2017-11-11T02:56:21.017Z,6.67
2017-11-11T02:58:50.217Z,6.62
2017-11-11T03:01:19.404Z,6.59
2017-11-11T03:03:49.055Z,6.54
2017-11-11T03:06:18.267Z,6.55
2017-11-11T03:08:48.329Z,6.54
2017-11-11T03:11:17.532Z,6.46
2017-11-11T03:13:46.738Z,6.47
2017-11-11T03:16:15.954Z,6.45
2017-11-11T03:18:45.149Z,6.43
2017-11-11T03:21:14.891Z,6.37
2017-11-11T03:23:44.844Z,6.34
2017-11-11T03:26:14.105Z,6.24
2017-11-11T03:28:44.084Z,6.24
2017-11-11T03:31:13.289Z,6.21
2017-11-11T03:33:43.297Z,6.26
2017-11-11T03:36:12.493Z,6.31
2017-11-11T03:38:41.681Z,6.27
2017-11-11T03:41:10.882Z,6.28
2017-11-11T03:43:40.087Z,6.30
2017-11-11T03:46:09.273Z,6.29
2017-11-11T03:48:38.483Z,6.34
2017-11-11T03:51:07.712Z,6.31
2017-11-11T03:53:37.685Z,6.36
2017-11-11T03:56:06.879Z,6.38
2017-11-11T03:58:36.297Z,6.43
2017-11-11T04:01:05.490Z,6.46
2017-11-11T04:03:34.699Z,6.47
2017-11-11T04:06:04.706Z,6.46
2017-11-11T04:08:34.016Z,6.41
2017-11-11T04:11:03.236Z,6.41
2017-11-11T04:13:33.277Z,6.41
2017-11-11T04:16:02.496Z,6.35
2017-11-11T04:18:31.698Z,6.36
2017-11-11T04:21:02.458Z,6.34
2017-11-11T04:23:32.435Z,6.32
2017-11-11T04:26:01.779Z,6.35
2017-11-11T04:28:31.761Z,6.34
2017-11-11T04:31:00.949Z,6.32
2017-11-11T04:33:30.180Z,6.36
2017-11-11T04:35:59.383Z,6.36
2017-11-11T04:38:30.108Z,6.31
2017-11-11T04:41:00.800Z,6.31
2017-11-11T04:43:30.008Z,6.31
2017-11-11T04:45:59.233Z,6.33
2017-11-11T04:48:28.466Z,6.34
2017-11-11T04:50:58.436Z,6.39
2017-11-11T04:53:27.673Z,6.38
2017-11-11T04:55:56.921Z,6.44
2017-11-11T04:58:26.139Z,6.48
2017-11-11T05:00:55.511Z,6.51
2017-11-11T05:03:24.715Z,6.49
2017-11-11T05:05:53.904Z,6.46
2017-11-11T05:08:23.113Z,6.48
2017-11-11T05:10:52.344Z,6.44
2017-11-11T05:13:21.532Z,6.52
2017-11-11T05:15:50.736Z,6.49
2017-11-11T05:18:20.731Z,6.53
2017-11-11T05:20:49.925Z,6.50
2017-11-11T05:23:19.229Z,6.50
2017-11-11T05:25:48.504Z,6.49
2017-11-11T05:28:17.715Z,6.51
2017-11-11T05:30:46.985Z,6.54
2017-11-11T05:33:16.424Z,6.53
2017-11-11T05:35:45.701Z,6.53
2017-11-11T05:38:14.892Z,6.53
2017-11-11T05:40:44.131Z,6.53
2017-11-11T05:43:13.313Z,6.57
2017-11-11T05:45:42.556Z,6.62
2017-11-11T05:48:11.860Z,6.61
2017-11-11T05:50:41.077Z,6.60
2017-11-11T05:53:10.288Z,6.72
2017-11-11T05:55:39.531Z,6.73
2017-11-11T05:58:08.776Z,6.74
2017-11-11T06:00:38.170Z,6.77
2017-11-11T06:03:07.352Z,6.83
2017-11-11T06:05:36.584Z,6.86
2017-11-11T06:08:05.817Z,6.87
2017-11-11T06:10:36.565Z,6.86
2017-11-11T06:13:06.548Z,6.85
2017-11-11T06:15:35.737Z,6.84
2017-11-11T06:18:05.125Z,6.78
2017-11-11T06:20:34.364Z,6.77
2017-11-11T06:23:03.576Z,6.75
2017-11-11T06:25:33.568Z,6.77
2017-11-11T06:28:04.305Z,6.80
2017-11-11T06:30:35.011Z,6.80
2017-11-11T06:33:04.235Z,6.77
2017-11-11T06:35:33.447Z,6.76
2017-11-11T06:38:02.949Z,6.77
2017-11-11T06:40:32.136Z,6.80
2017-11-11T06:43:01.335Z,6.81
2017-11-11T06:45:32.039Z,6.85
2017-11-11T06:48:01.251Z,6.85
2017-11-11T06:50:32.049Z,6.90
2017-11-11T06:53:02.124Z,6.95
2017-11-11T06:55:31.298Z,6.98
2017-11-11T06:58:00.525Z,6.98
2017-11-11T07:00:30.501Z,7.00
2017-11-11T07:02:59.736Z,7.01
2017-11-11T07:05:28.981Z,6.99
2017-11-11T07:07:58.175Z,7.00
2017-11-11T07:10:27.415Z,7.03
2017-11-11T07:12:56.665Z,7.09
2017-11-11T07:15:25.884Z,7.09
2017-11-11T07:17:55.105Z,7.06
2017-11-11T07:20:25.844Z,7.05
2017-11-11T07:22:56.600Z,7.06
2017-11-11T07:25:26.612Z,7.08
2017-11-11T07:27:56.572Z,7.10
2017-11-11T07:30:25.808Z,7.13
2017-11-11T07:32:54.989Z,7.15
2017-11-11T07:35:24.183Z,7.16
2017-11-11T07:37:53.410Z,7.19
2017-11-11T07:40:22.635Z,7.22
2017-11-11T07:42:51.933Z,7.26
2017-11-11T07:45:21.186Z,7.27
2017-11-11T07:47:50.438Z,7.24
2017-11-11T07:50:19.640Z,7.25
2017-11-11T07:52:48.868Z,7.23
2017-11-11T07:55:18.189Z,7.22
2017-11-11T07:57:48.146Z,7.24
2017-11-11T08:00:17.336Z,7.23
2017-11-11T08:02:46.527Z,7.24
2017-11-11T08:05:15.748Z,7.31
2017-11-11T08:07:44.943Z,7.29
2017-11-11T08:10:14.159Z,7.29
2017-11-11T08:12:43.360Z,7.30
2017-11-11T08:15:12.588Z,7.35
2017-11-11T08:17:42.561Z,7.36
2017-11-11T08:20:11.776Z,7.35
2017-11-11T08:22:41.017Z,7.36
2017-11-11T08:25:11.010Z,7.32
2017-11-11T08:27:40.230Z,7.33
2017-11-11T08:30:10.199Z,7.37
2017-11-11T08:32:39.413Z,7.35
2017-11-11T08:35:09.036Z,7.31
2017-11-11T08:37:39.031Z,7.28
2017-11-11T08:40:08.408Z,7.23
2017-11-11T08:42:37.657Z,7.16
2017-11-11T08:45:07.745Z,7.17
2017-11-11T08:47:36.996Z,7.20
2017-11-11T08:50:06.465Z,7.19
2017-11-11T08:52:37.213Z,7.15
2017-11-11T08:55:06.462Z,7.14
2017-11-11T08:57:35.967Z,7.13
2017-11-11T09:00:05.177Z,7.12
2017-11-11T09:02:34.376Z,7.18
2017-11-11T09:05:05.096Z,7.16
2017-11-11T09:07:34.545Z,7.12
2017-11-11T09:10:05.292Z,7.04
2017-11-11T09:12:35.409Z,7.08
2017-11-11T09:15:04.652Z,7.11
2017-11-11T09:17:33.833Z,7.15
2017-11-11T09:20:03.069Z,7.20
2017-11-11T09:22:32.286Z,7.23
2017-11-11T09:25:02.288Z,7.22
2017-11-11T09:27:32.277Z,7.24
2017-11-11T09:30:01.555Z,7.18
2017-11-11T09:32:30.822Z,7.17
2017-11-11T09:35:00.868Z,7.23
2017-11-11T09:37:30.044Z,7.27
2017-11-11T09:39:59.277Z,7.30
2017-11-11T09:42:28.458Z,7.29
2017-11-11T09:44:57.656Z,7.28
2017-11-11T09:47:27.005Z,7.22
2017-11-11T09:49:57.789Z,7.28
2017-11-11T09:52:26.990Z,7.29
2017-11-11T09:54:56.192Z,7.24
2017-11-11T09:57:25.405Z,7.20
2017-11-11T09:59:54.614Z,7.25
2017-11-11T10:02:23.836Z,7.30
2017-11-11T10:04:53.806Z,7.35
2017-11-11T10:07:23.032Z,7.38
2017-11-11T10:09:53.833Z,7.41
2017-11-11T10:12:23.067Z,7.41
2017-11-11T10:14:53.960Z,7.41
2017-11-11T10:17:23.187Z,7.46
2017-11-11T10:19:53.939Z,7.40
2017-11-11T10:22:23.164Z,7.42
2017-11-11T10:24:52.413Z,7.43
2017-11-11T10:27:21.644Z,7.41
2017-11-11T10:29:51.853Z,7.40
2017-11-11T10:32:22.768Z,7.35
2017-11-11T10:34:51.989Z,7.38
2017-11-11T10:37:22.708Z,7.39
2017-11-11T10:39:51.956Z,7.43
2017-11-11T10:42:21.127Z,7.46
2017-11-11T10:44:51.083Z,7.44
2017-11-11T10:47:20.315Z,7.48
2017-11-11T10:49:49.501Z,7.48
2017-11-11T10:52:18.772Z,7.51
2017-11-11T10:54:48.761Z,7.46
2017-11-11T10:57:18.024Z,7.51
2017-11-11T10:59:47.269Z,7.52
2017-11-11T11:02:16.490Z,7.56
2017-11-11T11:04:45.730Z,7.49
2017-11-11T11:07:14.945Z,7.43
2017-11-11T11:09:46.543Z,7.48
2017-11-11T11:12:15.761Z,7.42
2017-11-11T11:14:44.998Z,7.42
2017-11-11T11:17:15.045Z,7.42
2017-11-11T11:19:44.233Z,7.32
2017-11-11T11:22:13.479Z,7.44
2017-11-11T11:24:42.669Z,7.48
2017-11-11T11:27:13.389Z,7.58
2017-11-11T11:29:42.589Z,7.62
2017-11-11T11:32:11.941Z,7.63
2017-11-11T11:34:41.901Z,7.71
2017-11-11T11:37:11.073Z,7.81
2017-11-11T11:39:40.312Z,7.82
2017-11-11T11:42:09.476Z,7.84
2017-11-11T11:44:38.686Z,7.91
2017-11-11T11:47:07.855Z,7.97
2017-11-11T11:49:37.018Z,8.04
2017-11-11T11:52:06.491Z,8.11
2017-11-11T11:54:35.817Z,8.17
2017-11-11T11:57:06.529Z,8.19
2017-11-11T11:59:35.698Z,8.15
2017-11-11T12:02:04.918Z,8.19
2017-11-11T12:04:34.054Z,8.17
2017-11-11T12:07:04.032Z,8.30
2017-11-11T12:09:33.223Z,8.38
2017-11-11T12:12:02.416Z,8.37
2017-11-11T12:14:31.594Z,8.42
2017-11-11T12:17:00.756Z,8.38
2017-11-11T12:19:30.020Z,8.37
2017-11-11T12:21:59.207Z,8.34
2017-11-11T12:24:28.395Z,8.39
2017-11-11T12:26:57.569Z,8.47
2017-11-11T12:29:26.858Z,8.47
2017-11-11T12:31:56.826Z,8.45
2017-11-11T12:34:26.002Z,8.39
2017-11-11T12:36:55.193Z,8.37
2017-11-11T12:39:24.513Z,8.32
2017-11-11T12:41:53.687Z,8.31
2017-11-11T12:44:23.717Z,8.27
2017-11-11T12:46:53.897Z,8.27
2017-11-11T12:49:23.866Z,8.32
2017-11-11T12:51:53.042Z,8.36
2017-11-11T12:54:22.268Z,8.33
2017-11-11T12:56:52.970Z,8.39
2017-11-11T12:59:22.167Z,8.38
2017-11-11T13:01:51.351Z,8.42
2017-11-11T13:04:20.681Z,8.37
2017-11-11T13:06:50.192Z,8.37
2017-11-11T13:09:19.390Z,8.36
2017-11-11T13:11:48.582Z,8.36
2017-11-11T13:14:17.746Z,8.35
2017-11-11T13:16:46.940Z,8.29
2017-11-11T13:19:16.255Z,8.32
2017-11-11T13:21:45.457Z,8.28
2017-11-11T13:24:14.644Z,8.31
2017-11-11T13:26:43.854Z,8.34
2017-11-11T13:29:13.017Z,8.27
2017-11-11T13:31:42.348Z,8.30
2017-11-11T13:34:11.519Z,8.31
2017-11-11T13:36:40.721Z,8.33
2017-11-11T13:39:09.889Z,8.35
2017-11-11T13:41:39.061Z,8.36
2017-11-11T13:44:08.271Z,8.32
2017-11-11T13:46:37.433Z,8.36
2017-11-11T13:49:06.581Z,8.31
2017-11-11T13:51:39.560Z,8.34
2017-11-11T13:54:09.539Z,8.34
2017-11-11T13:56:38.701Z,8.28
2017-11-11T13:59:08.080Z,8.31
2017-11-11T14:01:37.277Z,8.33
2017-11-11T14:04:06.652Z,8.20
2017-11-11T14:06:35.842Z,8.22
2017-11-11T14:09:05.101Z,8.20
2017-11-11T14:11:34.310Z,8.25
2017-11-11T14:14:03.508Z,8.22
2017-11-11T14:16:32.828Z,8.20
2017-11-11T14:19:02.006Z,8.21
2017-11-11T14:21:31.216Z,8.23
2017-11-11T14:24:00.361Z,8.18
2017-11-11T14:26:30.317Z,8.17
2017-11-11T14:28:59.533Z,8.12
2017-11-11T14:31:28.798Z,8.15
2017-11-11T14:33:58.819Z,8.18
2017-11-11T14:36:28.745Z,8.21
2017-11-11T14:38:57.974Z,8.23
2017-11-11T14:41:27.180Z,8.29
2017-11-11T14:43:57.132Z,8.30
2017-11-11T14:46:26.389Z,8.34
2017-11-11T14:48:55.566Z,8.31
2017-11-11T14:51:24.941Z,8.26
2017-11-11T14:53:54.222Z,8.18
2017-11-11T14:56:23.540Z,8.18
2017-11-11T14:58:52.749Z,8.18
2017-11-11T15:01:21.929Z,8.26
2017-11-11T15:03:51.155Z,8.28
2017-11-11T15:06:20.357Z,8.25
2017-11-11T15:08:49.559Z,8.14
2017-11-11T15:11:18.748Z,8.17
2017-11-11T15:13:47.989Z,8.22
2017-11-11T15:16:17.973Z,8.26
2017-11-11T15:18:47.177Z,8.29
2017-11-11T15:21:16.418Z,8.30
2017-11-11T15:23:45.602Z,8.29
2017-11-11T15:26:14.891Z,8.26
2017-11-11T15:28:44.929Z,8.15
2017-11-11T15:31:14.225Z,8.06
2017-11-11T15:33:43.419Z,7.99
2017-11-11T15:36:12.634Z,7.90
2017-11-11T15:38:41.836Z,7.74
2017-11-11T15:41:11.071Z,7.63
2017-11-11T15:43:41.814Z,7.54
2017-11-11T15:46:10.992Z,7.50
2017-11-11T15:48:40.248Z,7.44
2017-11-11T15:51:10.188Z,7.36
2017-11-11T15:53:39.405Z,7.32
2017-11-11T15:56:08.580Z,7.18
2017-11-11T15:58:37.787Z,7.04
2017-11-11T16:01:06.994Z,6.97
2017-11-11T16:03:36.178Z,7.00
2017-11-11T16:06:05.422Z,7.01
2017-11-11T16:08:35.375Z,7.03
2017-11-11T16:11:04.633Z,7.12
2017-11-11T16:13:35.316Z,7.22
2017-11-11T16:16:04.552Z,7.27
2017-11-11T16:18:33.825Z,7.34
2017-11-11T16:21:03.004Z,7.40
2017-11-11T16:23:32.191Z,7.48
2017-11-11T16:26:01.384Z,7.49
2017-11-11T16:28:30.527Z,7.53
2017-11-11T16:30:59.719Z,7.58
2017-11-11T16:33:28.943Z,7.62
2017-11-11T16:35:58.142Z,7.63
2017-11-11T16:38:28.426Z,7.64
2017-11-11T16:40:57.608Z,7.66
2017-11-11T16:43:26.790Z,7.64
2017-11-11T16:45:55.989Z,7.65
2017-11-11T16:48:25.178Z,7.62
2017-11-11T16:50:54.379Z,7.58
2017-11-11T16:53:23.556Z,7.53
2017-11-11T16:55:52.747Z,7.43
2017-11-11T16:58:22.827Z,7.46
2017-11-11T17:00:52.034Z,7.50
2017-11-11T17:03:21.234Z,7.44
2017-11-11T17:05:50.582Z,7.45
2017-11-11T17:08:19.772Z,7.49
2017-11-11T17:10:49.004Z,7.47
2017-11-11T17:13:18.206Z,7.50
2017-11-11T17:15:47.405Z,7.51
2017-11-11T17:18:16.791Z,7.45
2017-11-11T17:20:45.985Z,7.50
2017-11-11T17:23:15.203Z,7.53
2017-11-11T17:25:44.411Z,7.43
2017-11-11T17:28:13.731Z,7.44
2017-11-11T17:30:43.427Z,7.52
2017-11-11T17:33:12.918Z,7.53
2017-11-11T17:35:42.136Z,7.57
2017-11-11T17:38:12.145Z,7.57
2017-11-11T17:40:41.420Z,7.62
2017-11-11T17:43:10.661Z,7.65
2017-11-11T17:45:40.650Z,7.67
2017-11-11T17:48:09.861Z,7.65
2017-11-11T17:50:39.866Z,7.70
2017-11-11T17:53:10.590Z,7.68
2017-11-11T17:55:39.851Z,7.72
2017-11-11T17:58:09.040Z,7.70
2017-11-11T18:00:38.361Z,7.72
2017-11-11T18:03:07.561Z,7.77
2017-11-11T18:05:36.822Z,7.78
2017-11-11T18:08:06.853Z,7.79
2017-11-11T18:10:36.789Z,7.80
2017-11-11T18:13:06.027Z,7.79
2017-11-11T18:15:36.741Z,7.80
2017-11-11T18:18:05.942Z,7.76
2017-11-11T18:20:35.918Z,7.76
2017-11-11T18:23:05.184Z,7.75
2017-11-11T18:25:34.435Z,7.78
2017-11-11T18:28:03.643Z,7.76
2017-11-11T18:30:32.856Z,7.78
2017-11-11T18:33:02.073Z,7.81
2017-11-11T18:35:32.175Z,7.76
2017-11-11T18:38:01.441Z,7.67
2017-11-11T18:40:30.707Z,7.66
2017-11-11T18:43:00.751Z,7.70
2017-11-11T18:45:30.025Z,7.68
2017-11-11T18:48:00.114Z,7.69
2017-11-11T18:50:30.121Z,7.66
2017-11-11T18:52:59.344Z,7.65
2017-11-11T18:55:28.753Z,7.67
2017-11-11T18:57:58.797Z,7.69
2017-11-11T19:00:28.227Z,7.74
2017-11-11T19:02:58.445Z,7.70
2017-11-11T19:05:27.764Z,7.71
2017-11-11T19:07:56.992Z,7.67
2017-11-11T19:10:27.068Z,7.61
2017-11-11T19:12:56.365Z,7.60
2017-11-11T19:15:25.673Z,7.60
2017-11-11T19:17:54.935Z,7.55
2017-11-11T19:20:24.343Z,7.57
2017-11-11T19:22:53.561Z,7.56
2017-11-11T19:25:24.140Z,7.46
2017-11-11T19:27:53.594Z,7.41
2017-11-11T19:30:23.402Z,7.39
2017-11-11T19:32:52.715Z,7.36
2017-11-11T19:35:21.936Z,7.35
2017-11-11T19:37:51.947Z,7.36
2017-11-11T19:40:21.175Z,7.35
2017-11-11T19:42:50.412Z,7.30
2017-11-11T19:45:19.689Z,7.29
2017-11-11T19:47:48.916Z,7.35
2017-11-11T19:50:18.174Z,7.28
2017-11-11T19:52:47.527Z,7.25
2017-11-11T19:55:17.558Z,7.15
2017-11-11T19:57:47.562Z,7.17
2017-11-11T20:00:16.919Z,7.09
2017-11-11T20:02:46.242Z,7.04
2017-11-11T20:05:15.518Z,7.07
2017-11-11T20:07:44.952Z,7.03
2017-11-11T20:10:14.424Z,7.04
2017-11-11T20:12:43.673Z,7.01
2017-11-11T20:15:12.897Z,7.03
2017-11-11T20:17:42.121Z,7.08
2017-11-11T20:20:11.418Z,7.10
2017-11-11T20:22:40.607Z,7.07
2017-11-11T20:25:11.473Z,7.15
2017-11-11T20:27:40.675Z,7.09
2017-11-11T20:30:10.567Z,7.13
2017-11-11T20:32:39.809Z,7.09
2017-11-11T20:35:09.941Z,7.06
2017-11-11T20:37:39.957Z,7.10
2017-11-11T20:40:09.965Z,7.16
2017-11-11T20:55:45.008Z,6.65
2017-11-11T20:58:15.169Z,6.67
2017-11-11T21:00:44.412Z,6.72
2017-11-11T21:03:14.434Z,6.78
2017-11-11T21:05:44.479Z,6.80
2017-11-11T21:08:14.440Z,6.79
2017-11-11T21:10:45.250Z,6.81
2017-11-11T21:13:15.355Z,6.80
2017-11-11T21:15:44.545Z,6.75
2017-11-11T21:18:13.771Z,6.73
2017-11-11T21:20:43.029Z,6.76
2017-11-11T21:23:12.246Z,6.80
2017-11-11T21:25:41.535Z,6.82
2017-11-11T21:28:11.305Z,6.80
2017-11-11T21:30:40.581Z,6.79
2017-11-11T21:33:09.804Z,6.74
2017-11-11T21:48:44.835Z,6.11
2017-11-11T21:51:14.834Z,6.18
2017-11-11T21:53:44.980Z,6.17
2017-11-11T21:56:15.068Z,6.22
2017-11-11T22:11:50.064Z,5.90
2017-11-11T22:14:19.428Z,5.88
2017-11-11T22:16:49.436Z,5.98
2017-11-11T22:19:18.664Z,6.04
2017-11-11T22:21:47.885Z,6.11
2017-11-11T22:24:17.202Z,6.12
2017-11-11T22:26:47.317Z,6.15
2017-11-11T22:29:17.310Z,6.17
2017-11-11T22:31:48.110Z,6.15
2017-11-11T22:34:17.339Z,6.16
2017-11-11T22:36:47.025Z,6.15
2017-11-11T22:39:16.287Z,6.17
2017-11-11T22:41:46.985Z,6.18
2017-11-11T22:44:16.219Z,6.14
2017-11-11T22:46:46.185Z,6.12
2017-11-11T22:49:15.393Z,6.09
2017-11-11T22:51:44.644Z,6.09
2017-11-11T22:54:13.862Z,6.07
2017-11-11T22:56:43.819Z,6.06
2017-11-11T22:59:13.319Z,6.06
2017-11-11T23:01:42.552Z,5.98
2017-11-11T23:04:11.806Z,5.96
2017-11-11T23:06:41.050Z,5.93
2017-11-11T23:09:10.290Z,5.93
2017-11-11T23:11:39.511Z,5.94
2017-11-11T23:14:08.703Z,5.92
2017-11-11T23:16:39.597Z,5.92
2017-11-11T23:19:08.945Z,5.92
2017-11-11T23:21:38.148Z,5.86
2017-11-11T23:24:07.357Z,5.86
2017-11-11T23:26:37.331Z,5.87
2017-11-11T23:29:06.845Z,5.78
2017-11-11T23:31:36.113Z,5.81
2017-11-11T23:34:05.331Z,5.77
2017-11-11T23:36:34.546Z,5.76
2017-11-11T23:39:03.755Z,5.77
2017-11-11T23:41:32.968Z,5.76
2017-11-11T23:44:02.215Z,5.76
2017-11-11T23:46:31.424Z,5.77
2017-11-11T23:49:00.647Z,5.78
2017-11-11T23:51:30.733Z,5.77
2017-11-11T23:53:59.936Z,5.73
2017-11-11T23:56:29.204Z,5.76
2017-11-11T23:58:58.396Z,5.76
